createdAt,value
2017-08-19T00:00:22.096Z,1003.79
2017-08-19T00:01:22.172Z,1003.84
2017-08-19T00:02:22.151Z,1003.79
2017-08-19T00:03:22.180Z,1003.84
2017-08-19T00:04:22.194Z,1003.84
2017-08-19T00:05:22.134Z,1003.84
2017-08-19T00:06:22.115Z,1003.86
2017-08-19T00:07:22.100Z,1003.89
2017-08-19T00:08:22.207Z,1003.89
2017-08-19T00:09:22.277Z,1003.91
2017-08-19T00:10:22.166Z,1003.92
2017-08-19T00:11:22.107Z,1003.92
2017-08-19T00:12:22.133Z,1003.98
2017-08-19T00:13:22.111Z,1003.93
2017-08-19T00:14:22.250Z,1004.03
2017-08-19T00:15:22.081Z,1004.00
2017-08-19T00:16:22.135Z,1003.99
2017-08-19T00:17:22.134Z,1003.97
2017-08-19T00:18:22.134Z,1004.05
2017-08-19T00:19:22.185Z,1004.08
2017-08-19T00:20:22.079Z,1004.06
2017-08-19T00:21:22.141Z,1004.10
2017-08-19T00:22:22.147Z,1004.04
2017-08-19T00:23:22.127Z,1004.18
2017-08-19T00:24:22.134Z,1004.15
2017-08-19T00:25:22.214Z,1004.21
2017-08-19T00:26:22.163Z,1004.19
2017-08-19T00:27:22.174Z,1004.23
2017-08-19T00:28:22.118Z,1004.23
2017-08-19T00:29:22.119Z,1004.26
2017-08-19T00:30:22.148Z,1004.28
2017-08-19T00:31:22.227Z,1004.28
2017-08-19T00:32:22.147Z,1004.27
2017-08-19T00:33:22.122Z,1004.25
2017-08-19T00:34:22.133Z,1004.28
2017-08-19T00:35:22.116Z,1004.25
2017-08-19T00:36:22.108Z,1004.28
2017-08-19T00:37:22.262Z,1004.23
2017-08-19T00:38:22.101Z,1004.22
2017-08-19T00:39:22.115Z,1004.27
2017-08-19T00:40:22.099Z,1004.30
2017-08-19T00:41:22.140Z,1004.30
2017-08-19T00:42:22.212Z,1004.29
2017-08-19T00:43:22.199Z,1004.30
2017-08-19T00:44:22.159Z,1004.31
2017-08-19T00:45:22.342Z,1004.30
2017-08-19T00:46:22.135Z,1004.27
2017-08-19T00:47:22.173Z,1004.32
2017-08-19T00:48:22.208Z,1004.33
2017-08-19T00:49:22.139Z,1004.34
2017-08-19T00:50:22.194Z,1004.30
2017-08-19T00:51:22.199Z,1004.30
2017-08-19T00:52:22.130Z,1004.32
2017-08-19T00:53:22.305Z,1004.37
2017-08-19T00:54:22.199Z,1004.35
2017-08-19T00:55:22.151Z,1004.36
2017-08-19T00:56:22.183Z,1004.40
2017-08-19T00:57:22.230Z,1004.39
2017-08-19T00:58:22.242Z,1004.42
2017-08-19T00:59:22.208Z,1004.38
2017-08-19T01:00:22.142Z,1004.35
2017-08-19T01:01:22.151Z,1004.37
2017-08-19T01:02:22.120Z,1004.41
2017-08-19T01:03:22.151Z,1004.45
2017-08-19T01:04:22.150Z,1004.38
2017-08-19T01:05:22.136Z,1004.38
2017-08-19T01:06:22.118Z,1004.43
2017-08-19T01:07:22.072Z,1004.46
2017-08-19T01:08:22.141Z,1004.44
2017-08-19T01:09:22.155Z,1004.41
2017-08-19T01:10:22.083Z,1004.45
2017-08-19T01:11:22.150Z,1004.50
2017-08-19T01:12:22.158Z,1004.50
2017-08-19T01:13:22.123Z,1004.51
2017-08-19T01:14:22.189Z,1004.50
2017-08-19T01:15:22.171Z,1004.52
2017-08-19T01:16:22.124Z,1004.46
2017-08-19T01:17:22.188Z,1004.48
2017-08-19T01:18:22.149Z,1004.48
2017-08-19T01:19:22.144Z,1004.50
2017-08-19T01:20:22.217Z,1004.46
2017-08-19T01:21:22.157Z,1004.49
2017-08-19T01:22:22.176Z,1004.51
2017-08-19T01:23:22.146Z,1004.52
2017-08-19T01:24:22.145Z,1004.44
2017-08-19T01:25:22.216Z,1004.50
2017-08-19T01:26:22.153Z,1004.47
2017-08-19T01:27:22.207Z,1004.47
2017-08-19T01:28:22.216Z,1004.44
2017-08-19T01:29:22.188Z,1004.43
2017-08-19T01:30:22.225Z,1004.52
2017-08-19T01:31:22.181Z,1004.51
2017-08-19T01:32:22.205Z,1004.56
2017-08-19T01:33:22.143Z,1004.49
2017-08-19T01:34:22.174Z,1004.57
2017-08-19T01:35:22.207Z,1004.55
2017-08-19T01:36:22.147Z,1004.50
2017-08-19T01:37:22.206Z,1004.53
2017-08-19T01:38:22.189Z,1004.61
2017-08-19T01:39:22.209Z,1004.60
2017-08-19T01:40:22.174Z,1004.59
2017-08-19T01:41:22.173Z,1004.57
2017-08-19T01:42:22.153Z,1004.62
2017-08-19T01:43:22.177Z,1004.59
2017-08-19T01:44:22.184Z,1004.63
2017-08-19T01:45:22.217Z,1004.65
2017-08-19T01:46:22.152Z,1004.63
2017-08-19T01:47:22.155Z,1004.63
2017-08-19T01:48:22.153Z,1004.71
2017-08-19T01:49:22.219Z,1004.65
2017-08-19T01:50:22.219Z,1004.64
2017-08-19T01:51:22.214Z,1004.73
2017-08-19T01:52:22.192Z,1004.65
2017-08-19T01:53:22.217Z,1004.65
2017-08-19T01:54:22.237Z,1004.67
2017-08-19T01:55:22.255Z,1004.66
2017-08-19T01:56:22.168Z,1004.69
2017-08-19T01:57:22.200Z,1004.73
2017-08-19T01:58:22.199Z,1004.74
2017-08-19T01:59:22.173Z,1004.74
2017-08-19T02:00:22.201Z,1004.69
2017-08-19T02:01:22.195Z,1004.72
2017-08-19T02:02:22.235Z,1004.75
2017-08-19T02:03:22.228Z,1004.70
2017-08-19T02:04:22.196Z,1004.69
2017-08-19T02:05:22.211Z,1004.70
2017-08-19T02:06:22.196Z,1004.73
2017-08-19T02:07:22.171Z,1004.73
2017-08-19T02:08:22.175Z,1004.75
2017-08-19T02:09:22.235Z,1004.72
2017-08-19T02:10:22.248Z,1004.73
2017-08-19T02:11:22.241Z,1004.68
2017-08-19T02:12:22.183Z,1004.73
2017-08-19T02:13:22.260Z,1004.71
2017-08-19T02:14:22.304Z,1004.73
2017-08-19T02:15:22.203Z,1004.68
2017-08-19T02:16:22.234Z,1004.74
2017-08-19T02:17:22.231Z,1004.76
2017-08-19T02:18:22.211Z,1004.74
2017-08-19T02:19:22.241Z,1004.75
2017-08-19T02:20:22.274Z,1004.78
2017-08-19T02:21:22.182Z,1004.76
2017-08-19T02:22:22.158Z,1004.78
2017-08-19T02:23:22.249Z,1004.71
2017-08-19T02:24:22.205Z,1004.75
2017-08-19T02:25:22.157Z,1004.79
2017-08-19T02:26:22.252Z,1004.77
2017-08-19T02:27:22.209Z,1004.78
2017-08-19T02:28:22.253Z,1004.77
2017-08-19T02:29:22.206Z,1004.81
2017-08-19T02:30:22.137Z,1004.77
2017-08-19T02:31:22.166Z,1004.76
2017-08-19T02:32:22.227Z,1004.85
2017-08-19T02:33:22.260Z,1004.80
2017-08-19T02:34:22.188Z,1004.84
2017-08-19T02:35:22.276Z,1004.82
2017-08-19T02:36:22.261Z,1004.79
2017-08-19T02:37:22.243Z,1004.86
2017-08-19T02:38:22.213Z,1004.89
2017-08-19T02:39:22.298Z,1004.78
2017-08-19T02:40:22.278Z,1004.88
2017-08-19T02:41:22.190Z,1004.82
2017-08-19T02:42:22.268Z,1004.80
2017-08-19T02:43:22.230Z,1004.86
2017-08-19T02:44:22.296Z,1004.85
2017-08-19T02:45:22.221Z,1004.82
2017-08-19T02:46:22.226Z,1004.82
2017-08-19T02:47:22.251Z,1004.78
2017-08-19T02:48:22.235Z,1004.86
2017-08-19T02:49:22.250Z,1004.77
2017-08-19T02:50:22.204Z,1004.84
2017-08-19T02:51:22.201Z,1004.89
2017-08-19T02:52:22.184Z,1004.82
2017-08-19T02:53:22.171Z,1004.82
2017-08-19T02:54:22.269Z,1004.81
2017-08-19T02:55:22.201Z,1004.89
2017-08-19T02:56:22.226Z,1004.91
2017-08-19T02:57:22.198Z,1004.92
2017-08-19T02:58:22.179Z,1004.94
2017-08-19T02:59:22.222Z,1004.94
2017-08-19T03:00:22.250Z,1004.95
2017-08-19T03:01:22.179Z,1004.92
2017-08-19T03:02:22.230Z,1004.90
2017-08-19T03:03:22.229Z,1004.92
2017-08-19T03:04:22.155Z,1004.93
2017-08-19T03:05:22.214Z,1004.97
2017-08-19T03:06:22.205Z,1004.95
2017-08-19T03:07:22.220Z,1004.96
2017-08-19T03:08:22.187Z,1004.97
2017-08-19T03:09:22.206Z,1004.98
2017-08-19T03:10:22.230Z,1004.98
2017-08-19T03:11:22.193Z,1004.96
2017-08-19T03:12:22.229Z,1004.93
2017-08-19T03:13:22.232Z,1004.95
2017-08-19T03:14:22.236Z,1004.96
2017-08-19T03:15:22.209Z,1004.97
2017-08-19T03:16:22.206Z,1004.99
2017-08-19T03:17:22.237Z,1004.98
2017-08-19T03:18:22.238Z,1005.01
2017-08-19T03:19:22.240Z,1004.98
2017-08-19T03:20:22.212Z,1004.98
2017-08-19T03:21:22.237Z,1004.98
2017-08-19T03:22:22.283Z,1004.99
2017-08-19T03:23:22.308Z,1004.97
2017-08-19T03:24:22.241Z,1005.01
2017-08-19T03:25:22.222Z,1005.04
2017-08-19T03:26:22.272Z,1005.04
2017-08-19T03:27:22.315Z,1005.06
2017-08-19T03:28:22.248Z,1005.12
2017-08-19T03:29:22.259Z,1005.07
2017-08-19T03:30:22.260Z,1005.09
2017-08-19T03:31:22.276Z,1005.08
2017-08-19T03:32:22.280Z,1005.10
2017-08-19T03:33:22.239Z,1005.15
2017-08-19T03:34:22.242Z,1005.20
2017-08-19T03:35:22.282Z,1005.14
2017-08-19T03:36:22.228Z,1005.12
2017-08-19T03:37:22.247Z,1005.17
2017-08-19T03:38:22.221Z,1005.19
2017-08-19T03:39:22.282Z,1005.22
2017-08-19T03:40:22.282Z,1005.22
2017-08-19T03:41:22.277Z,1005.26
2017-08-19T03:42:22.333Z,1005.25
2017-08-19T03:43:22.320Z,1005.25
2017-08-19T03:44:22.296Z,1005.26
2017-08-19T03:45:22.318Z,1005.32
2017-08-19T03:46:22.260Z,1005.26
2017-08-19T03:47:22.330Z,1005.30
2017-08-19T03:48:22.260Z,1005.29
2017-08-19T03:49:22.328Z,1005.25
2017-08-19T03:50:22.302Z,1005.27
2017-08-19T03:51:22.324Z,1005.33
2017-08-19T03:52:22.337Z,1005.36
2017-08-19T03:53:22.241Z,1005.34
2017-08-19T03:54:22.235Z,1005.35
2017-08-19T03:55:22.244Z,1005.32
2017-08-19T03:56:22.325Z,1005.37
2017-08-19T03:57:22.274Z,1005.35
2017-08-19T03:58:22.272Z,1005.35
2017-08-19T03:59:22.268Z,1005.32
2017-08-19T04:00:22.330Z,1005.38
2017-08-19T04:01:22.307Z,1005.31
2017-08-19T04:02:22.239Z,1005.31
2017-08-19T04:03:22.196Z,1005.32
2017-08-19T04:04:22.256Z,1005.29
2017-08-19T04:05:22.311Z,1005.33
2017-08-19T04:06:22.217Z,1005.36
2017-08-19T04:07:22.226Z,1005.33
2017-08-19T04:08:22.267Z,1005.33
2017-08-19T04:09:22.218Z,1005.34
2017-08-19T04:10:22.264Z,1005.35
2017-08-19T04:11:22.272Z,1005.40
2017-08-19T04:12:22.199Z,1005.41
2017-08-19T04:13:22.267Z,1005.41
2017-08-19T04:14:22.267Z,1005.40
2017-08-19T04:15:22.254Z,1005.37
2017-08-19T04:16:22.222Z,1005.36
2017-08-19T04:17:22.272Z,1005.35
2017-08-19T04:18:22.247Z,1005.36
2017-08-19T04:19:22.253Z,1005.40
2017-08-19T04:20:22.248Z,1005.32
2017-08-19T04:21:22.283Z,1005.33
2017-08-19T04:22:22.251Z,1005.32
2017-08-19T04:23:22.249Z,1005.34
2017-08-19T04:24:22.305Z,1005.37
2017-08-19T04:25:22.248Z,1005.41
2017-08-19T04:26:22.309Z,1005.41
2017-08-19T04:27:22.280Z,1005.40
2017-08-19T04:28:22.279Z,1005.40
2017-08-19T04:29:22.249Z,1005.42
2017-08-19T04:30:22.281Z,1005.46
2017-08-19T04:31:22.281Z,1005.38
2017-08-19T04:32:22.315Z,1005.47
2017-08-19T04:33:22.315Z,1005.39
2017-08-19T04:34:22.286Z,1005.47
2017-08-19T04:35:22.292Z,1005.45
2017-08-19T04:36:22.327Z,1005.45
2017-08-19T04:37:22.296Z,1005.45
2017-08-19T04:38:22.286Z,1005.44
2017-08-19T04:39:22.300Z,1005.47
2017-08-19T04:40:22.269Z,1005.43
2017-08-19T04:41:22.366Z,1005.49
2017-08-19T04:42:22.266Z,1005.47
2017-08-19T04:43:22.267Z,1005.46
2017-08-19T04:44:22.338Z,1005.46
2017-08-19T04:45:22.290Z,1005.48
2017-08-19T04:46:22.330Z,1005.44
2017-08-19T04:47:22.366Z,1005.51
2017-08-19T04:48:22.301Z,1005.50
2017-08-19T04:49:22.355Z,1005.41
2017-08-19T04:50:22.302Z,1005.46
2017-08-19T04:51:22.385Z,1005.43
2017-08-19T04:52:22.326Z,1005.44
2017-08-19T04:53:22.306Z,1005.49
2017-08-19T04:54:22.276Z,1005.44
2017-08-19T04:55:22.309Z,1005.45
2017-08-19T04:56:22.274Z,1005.42
2017-08-19T04:57:22.277Z,1005.45
2017-08-19T04:58:22.273Z,1005.42
2017-08-19T04:59:22.344Z,1005.42
2017-08-19T05:00:22.330Z,1005.34
2017-08-19T05:01:22.303Z,1005.42
2017-08-19T05:02:22.349Z,1005.46
2017-08-19T05:03:22.338Z,1005.45
2017-08-19T05:04:22.256Z,1005.46
2017-08-19T05:05:22.299Z,1005.53
2017-08-19T05:06:22.337Z,1005.45
2017-08-19T05:07:22.273Z,1005.46
2017-08-19T05:08:22.306Z,1005.48
2017-08-19T05:09:22.278Z,1005.48
2017-08-19T05:10:22.294Z,1005.50
2017-08-19T05:11:22.277Z,1005.44
2017-08-19T05:12:22.302Z,1005.51
2017-08-19T05:13:22.341Z,1005.46
2017-08-19T05:14:22.307Z,1005.52
2017-08-19T05:15:22.313Z,1005.52
2017-08-19T05:16:22.343Z,1005.48
2017-08-19T05:17:22.348Z,1005.56
2017-08-19T05:18:22.321Z,1005.54
2017-08-19T05:19:22.290Z,1005.55
2017-08-19T05:20:22.345Z,1005.54
2017-08-19T05:21:22.379Z,1005.52
2017-08-19T05:22:22.320Z,1005.51
2017-08-19T05:23:22.384Z,1005.53
2017-08-19T05:24:22.316Z,1005.57
2017-08-19T05:25:22.382Z,1005.53
2017-08-19T05:26:22.382Z,1005.60
2017-08-19T05:27:22.327Z,1005.61
2017-08-19T05:28:22.318Z,1005.55
2017-08-19T05:29:22.324Z,1005.54
2017-08-19T05:30:22.359Z,1005.49
2017-08-19T05:31:22.385Z,1005.56
2017-08-19T05:32:22.313Z,1005.58
2017-08-19T05:33:22.314Z,1005.60
2017-08-19T05:34:22.295Z,1005.57
2017-08-19T05:35:22.260Z,1005.53
2017-08-19T05:36:22.321Z,1005.56
2017-08-19T05:37:22.314Z,1005.51
2017-08-19T05:38:22.307Z,1005.53
2017-08-19T05:39:22.318Z,1005.56
2017-08-19T05:40:22.318Z,1005.57
2017-08-19T05:41:22.317Z,1005.59
2017-08-19T05:42:22.316Z,1005.57
2017-08-19T05:43:22.354Z,1005.58
2017-08-19T05:44:22.396Z,1005.60
2017-08-19T05:45:22.298Z,1005.53
2017-08-19T05:46:25.308Z,1005.52
2017-08-19T05:47:22.374Z,1005.55
2017-08-19T05:48:22.329Z,1005.64
2017-08-19T05:49:25.438Z,1005.66
2017-08-19T05:50:22.383Z,1005.62
2017-08-19T05:51:22.304Z,1005.57
2017-08-19T05:52:22.306Z,1005.66
2017-08-19T05:53:22.405Z,1005.67
2017-08-19T05:54:23.433Z,1005.66
2017-08-19T05:55:23.439Z,1005.65
2017-08-19T05:56:22.359Z,1005.69
2017-08-19T05:57:22.329Z,1005.68
2017-08-19T05:58:22.314Z,1005.64
2017-08-19T05:59:22.412Z,1005.65
2017-08-19T06:00:22.402Z,1005.68
2017-08-19T06:01:22.314Z,1005.69
2017-08-19T06:02:23.367Z,1005.65
2017-08-19T06:03:22.375Z,1005.65
2017-08-19T06:05:22.391Z,1005.58
2017-08-19T06:06:22.317Z,1005.62
2017-08-19T06:07:22.376Z,1005.67
2017-08-19T06:08:22.324Z,1005.59
2017-08-19T06:09:22.413Z,1005.67
2017-08-19T06:10:25.425Z,1005.62
2017-08-19T06:11:22.328Z,1005.65
2017-08-19T06:12:22.427Z,1005.67
2017-08-19T06:13:23.445Z,1005.66
2017-08-19T06:14:22.406Z,1005.66
2017-08-19T06:15:22.395Z,1005.67
2017-08-19T06:16:22.326Z,1005.70
2017-08-19T06:17:23.360Z,1005.69
2017-08-19T06:18:22.356Z,1005.71
2017-08-19T06:19:22.364Z,1005.74
2017-08-19T06:20:22.390Z,1005.74
2017-08-19T06:21:22.380Z,1005.72
2017-08-19T06:22:22.354Z,1005.72
2017-08-19T06:23:22.428Z,1005.72
2017-08-19T06:24:22.365Z,1005.76
2017-08-19T06:25:22.394Z,1005.77
2017-08-19T06:26:22.373Z,1005.82
2017-08-19T06:27:22.422Z,1005.84
2017-08-19T06:28:23.337Z,1005.82
2017-08-19T06:29:23.336Z,1005.80
2017-08-19T06:30:22.396Z,1005.89
2017-08-19T06:31:22.370Z,1005.86
2017-08-19T06:32:22.387Z,1005.87
2017-08-19T06:33:22.342Z,1005.89
2017-08-19T06:34:22.371Z,1005.87
2017-08-19T06:35:22.405Z,1005.97
2017-08-19T06:36:22.437Z,1005.90
2017-08-19T06:37:22.377Z,1005.95
2017-08-19T06:38:22.368Z,1005.92
2017-08-19T06:39:22.384Z,1005.91
2017-08-19T06:40:22.407Z,1005.92
2017-08-19T06:41:22.342Z,1005.97
2017-08-19T06:42:22.346Z,1005.91
2017-08-19T06:43:22.442Z,1005.91
2017-08-19T06:44:22.349Z,1005.93
2017-08-19T06:45:22.381Z,1005.92
2017-08-19T06:46:22.404Z,1005.88
2017-08-19T06:47:22.439Z,1005.97
2017-08-19T06:48:22.414Z,1005.91
2017-08-19T06:49:22.356Z,1005.92
2017-08-19T06:50:23.387Z,1005.98
2017-08-19T06:51:22.352Z,1006.01
2017-08-19T06:52:22.355Z,1005.99
2017-08-19T06:53:22.253Z,1006.01
2017-08-19T06:54:22.246Z,1005.97
2017-08-19T06:55:22.293Z,1006.04
2017-08-19T06:56:22.339Z,1006.04
2017-08-19T06:57:22.299Z,1006.00
2017-08-19T06:58:22.252Z,1006.04
2017-08-19T06:59:22.256Z,1005.97
2017-08-19T07:00:22.260Z,1005.98
2017-08-19T07:01:22.263Z,1006.03
2017-08-19T07:02:22.344Z,1005.97
2017-08-19T07:03:22.423Z,1005.99
2017-08-19T07:04:22.394Z,1006.05
2017-08-19T07:05:22.398Z,1006.04
2017-08-19T07:06:22.363Z,1006.06
2017-08-19T07:07:22.392Z,1005.96
2017-08-19T07:08:22.385Z,1006.08
2017-08-19T07:09:22.382Z,1006.06
2017-08-19T07:10:22.397Z,1006.07
2017-08-19T07:11:22.371Z,1006.00
2017-08-19T07:12:22.361Z,1006.05
2017-08-19T07:13:22.361Z,1006.02
2017-08-19T07:14:22.398Z,1006.01
2017-08-19T07:15:22.422Z,1006.02
2017-08-19T07:16:22.428Z,1006.08
2017-08-19T07:17:22.392Z,1006.09
2017-08-19T07:18:22.366Z,1006.06
2017-08-19T07:19:22.424Z,1006.08
2017-08-19T07:20:22.462Z,1006.02
2017-08-19T07:21:22.409Z,1006.05
2017-08-19T07:22:22.394Z,1006.04
2017-08-19T07:23:22.390Z,1006.03
2017-08-19T07:24:22.363Z,1006.03
2017-08-19T07:25:22.353Z,1005.98
2017-08-19T07:26:22.325Z,1006.09
2017-08-19T07:27:22.366Z,1006.15
2017-08-19T07:28:22.366Z,1006.05
2017-08-19T07:29:22.350Z,1006.15
2017-08-19T07:30:22.381Z,1006.06
2017-08-19T07:31:22.377Z,1006.18
2017-08-19T07:32:22.370Z,1006.10
2017-08-19T07:33:22.424Z,1006.08
2017-08-19T07:34:22.351Z,1006.02
2017-08-19T07:35:22.394Z,1006.06
2017-08-19T07:36:22.315Z,1006.00
2017-08-19T07:37:22.353Z,1006.08
2017-08-19T07:38:22.378Z,1006.06
2017-08-19T07:39:22.395Z,1006.08
2017-08-19T07:40:22.396Z,1006.08
2017-08-19T07:41:22.395Z,1006.03
2017-08-19T07:42:22.402Z,1005.97
2017-08-19T07:43:22.475Z,1005.99
2017-08-19T07:44:22.390Z,1006.02
2017-08-19T07:45:22.406Z,1005.99
2017-08-19T07:46:22.484Z,1006.03
2017-08-19T07:47:22.423Z,1006.01
2017-08-19T07:48:22.384Z,1006.03
2017-08-19T07:49:22.450Z,1006.07
2017-08-19T07:50:22.420Z,1006.16
2017-08-19T07:51:22.390Z,1006.12
2017-08-19T07:52:22.458Z,1006.12
2017-08-19T07:53:22.368Z,1006.17
2017-08-19T07:54:22.446Z,1006.18
2017-08-19T07:55:22.373Z,1006.15
2017-08-19T07:56:22.441Z,1006.18
2017-08-19T07:57:22.410Z,1006.11
2017-08-19T07:58:22.448Z,1006.14
2017-08-19T07:59:22.450Z,1006.13
2017-08-19T08:00:22.416Z,1006.25
2017-08-19T08:01:22.451Z,1006.13
2017-08-19T08:02:22.441Z,1006.16
2017-08-19T08:03:22.398Z,1006.22
2017-08-19T08:04:22.431Z,1006.20
2017-08-19T08:05:22.397Z,1006.17
2017-08-19T08:06:22.426Z,1006.24
2017-08-19T08:07:22.491Z,1006.27
2017-08-19T08:08:22.391Z,1006.23
2017-08-19T08:09:22.401Z,1006.25
2017-08-19T08:10:22.394Z,1006.30
2017-08-19T08:11:22.393Z,1006.25
2017-08-19T08:12:22.419Z,1006.29
2017-08-19T08:13:22.432Z,1006.33
2017-08-19T08:14:22.376Z,1006.34
2017-08-19T08:15:22.284Z,1006.33
2017-08-19T08:16:22.297Z,1006.28
2017-08-19T08:17:22.297Z,1006.28
2017-08-19T08:18:22.331Z,1006.36
2017-08-19T08:19:22.339Z,1006.37
2017-08-19T08:20:22.299Z,1006.30
2017-08-19T08:21:22.341Z,1006.32
2017-08-19T08:22:22.305Z,1006.35
2017-08-19T08:23:22.345Z,1006.34
2017-08-19T08:24:22.485Z,1006.37
2017-08-19T08:25:22.432Z,1006.34
2017-08-19T08:26:22.480Z,1006.35
2017-08-19T08:27:22.481Z,1006.32
2017-08-19T08:28:22.445Z,1006.37
2017-08-19T08:29:22.453Z,1006.29
2017-08-19T08:30:22.434Z,1006.35
2017-08-19T08:31:22.493Z,1006.43
2017-08-19T08:32:22.467Z,1006.33
2017-08-19T08:33:22.480Z,1006.33
2017-08-19T08:34:22.465Z,1006.32
2017-08-19T08:35:22.434Z,1006.37
2017-08-19T08:36:22.527Z,1006.40
2017-08-19T08:37:22.444Z,1006.27
2017-08-19T08:38:22.509Z,1006.33
2017-08-19T08:39:22.422Z,1006.33
2017-08-19T08:40:22.451Z,1006.28
2017-08-19T08:41:22.437Z,1006.30
2017-08-19T08:42:22.437Z,1006.39
2017-08-19T08:43:22.474Z,1006.35
2017-08-19T08:44:22.457Z,1006.37
2017-08-19T08:45:22.445Z,1006.31
2017-08-19T08:46:22.461Z,1006.33
2017-08-19T08:47:22.417Z,1006.33
2017-08-19T08:48:22.511Z,1006.37
2017-08-19T08:49:22.482Z,1006.39
2017-08-19T08:50:22.422Z,1006.23
2017-08-19T08:51:22.485Z,1006.31
2017-08-19T08:52:22.463Z,1006.30
2017-08-19T08:53:22.447Z,1006.22
2017-08-19T08:54:22.421Z,1006.25
2017-08-19T08:55:22.429Z,1006.27
2017-08-19T08:56:22.454Z,1006.32
2017-08-19T08:57:22.421Z,1006.28
2017-08-19T08:58:22.423Z,1006.25
2017-08-19T08:59:22.376Z,1006.40
2017-08-19T09:00:22.399Z,1006.35
2017-08-19T09:01:22.451Z,1006.36
2017-08-19T09:02:22.460Z,1006.37
2017-08-19T09:03:22.414Z,1006.37
2017-08-19T09:04:22.454Z,1006.38
2017-08-19T09:05:22.444Z,1006.38
2017-08-19T09:06:22.437Z,1006.35
2017-08-19T09:07:22.445Z,1006.33
2017-08-19T09:08:22.456Z,1006.33
2017-08-19T09:09:22.417Z,1006.28
2017-08-19T09:10:22.452Z,1006.39
2017-08-19T09:11:22.459Z,1006.34
2017-08-19T09:12:22.500Z,1006.33
2017-08-19T09:13:22.409Z,1006.25
2017-08-19T09:14:22.510Z,1006.29
2017-08-19T09:15:22.438Z,1006.29
2017-08-19T09:16:22.509Z,1006.29
2017-08-19T09:17:22.467Z,1006.25
2017-08-19T09:18:22.440Z,1006.26
2017-08-19T09:19:22.504Z,1006.29
2017-08-19T09:20:22.478Z,1006.31
2017-08-19T09:21:22.538Z,1006.24
2017-08-19T09:22:22.542Z,1006.22
2017-08-19T09:23:22.497Z,1006.24
2017-08-19T09:24:22.507Z,1006.25
2017-08-19T09:25:22.473Z,1006.20
2017-08-19T09:26:22.506Z,1006.25
2017-08-19T09:27:22.511Z,1006.30
2017-08-19T09:28:22.519Z,1006.30
2017-08-19T09:29:22.544Z,1006.31
2017-08-19T09:30:22.509Z,1006.28
2017-08-19T09:31:22.476Z,1006.31
2017-08-19T09:32:22.476Z,1006.25
2017-08-19T09:33:22.512Z,1006.31
2017-08-19T09:34:22.454Z,1006.34
2017-08-19T09:35:22.401Z,1006.30
2017-08-19T09:36:22.471Z,1006.28
2017-08-19T09:37:22.420Z,1006.31
2017-08-19T09:38:22.472Z,1006.34
2017-08-19T09:39:22.483Z,1006.33
2017-08-19T09:40:22.472Z,1006.27
2017-08-19T09:41:22.474Z,1006.32
2017-08-19T09:43:22.461Z,1006.38
2017-08-19T09:44:22.459Z,1006.24
2017-08-19T09:45:22.545Z,1006.39
2017-08-19T09:46:22.487Z,1006.32
2017-08-19T09:47:22.454Z,1006.24
2017-08-19T09:48:22.509Z,1006.26
2017-08-19T09:49:22.458Z,1006.29
2017-08-19T09:50:22.483Z,1006.33
2017-08-19T09:51:22.456Z,1006.26
2017-08-19T09:52:22.533Z,1006.29
2017-08-19T09:53:22.484Z,1006.29
2017-08-19T09:54:22.529Z,1006.27
2017-08-19T09:55:22.518Z,1006.28
2017-08-19T09:56:22.548Z,1006.30
2017-08-19T09:57:22.525Z,1006.32
2017-08-19T09:58:22.483Z,1006.41
2017-08-19T09:59:22.500Z,1006.34
2017-08-19T10:00:22.487Z,1006.42
2017-08-19T10:01:22.470Z,1006.47
2017-08-19T10:02:22.504Z,1006.36
2017-08-19T10:03:22.499Z,1006.34
2017-08-19T10:04:22.470Z,1006.28
2017-08-19T10:05:22.524Z,1006.42
2017-08-19T10:06:22.507Z,1006.39
2017-08-19T10:07:22.506Z,1006.30
2017-08-19T10:08:22.521Z,1006.39
2017-08-19T10:09:22.565Z,1006.36
2017-08-19T10:10:22.522Z,1006.48
2017-08-19T10:11:22.467Z,1006.45
2017-08-19T10:12:22.533Z,1006.39
2017-08-19T10:13:22.544Z,1006.42
2017-08-19T10:14:22.459Z,1006.42
2017-08-19T10:15:22.465Z,1006.42
2017-08-19T10:16:22.529Z,1006.42
2017-08-19T10:17:22.468Z,1006.41
2017-08-19T10:18:22.494Z,1006.41
2017-08-19T10:19:22.529Z,1006.44
2017-08-19T10:20:22.534Z,1006.41
2017-08-19T10:21:22.529Z,1006.36
2017-08-19T10:22:22.510Z,1006.42
2017-08-19T10:23:22.537Z,1006.44
2017-08-19T10:24:22.476Z,1006.43
2017-08-19T10:25:22.511Z,1006.44
2017-08-19T10:26:22.540Z,1006.45
2017-08-19T10:27:22.533Z,1006.52
2017-08-19T10:28:22.570Z,1006.45
2017-08-19T10:29:22.505Z,1006.55
2017-08-19T10:30:22.507Z,1006.43
2017-08-19T10:31:22.576Z,1006.48
2017-08-19T10:32:22.479Z,1006.46
2017-08-19T10:33:22.516Z,1006.38
2017-08-19T10:34:22.488Z,1006.41
2017-08-19T10:35:22.507Z,1006.38
2017-08-19T10:36:22.489Z,1006.42
2017-08-19T10:37:22.525Z,1006.38
2017-08-19T10:38:22.491Z,1006.38
2017-08-19T10:39:22.513Z,1006.37
2017-08-19T10:40:22.515Z,1006.40
2017-08-19T10:41:22.581Z,1006.46
2017-08-19T10:42:22.581Z,1006.50
2017-08-19T10:43:22.561Z,1006.54
2017-08-19T10:44:22.499Z,1006.49
2017-08-19T10:45:22.508Z,1006.55
2017-08-19T10:46:22.482Z,1006.55
2017-08-19T10:47:22.511Z,1006.48
2017-08-19T10:48:22.513Z,1006.53
2017-08-19T10:49:22.510Z,1006.59
2017-08-19T10:50:22.549Z,1006.60
2017-08-19T10:51:22.513Z,1006.55
2017-08-19T10:52:22.549Z,1006.59
2017-08-19T10:53:22.514Z,1006.61
2017-08-19T10:54:22.549Z,1006.62
2017-08-19T10:55:22.552Z,1006.57
2017-08-19T10:56:22.556Z,1006.60
2017-08-19T10:57:22.535Z,1006.60
2017-08-19T10:58:22.586Z,1006.60
2017-08-19T10:59:22.495Z,1006.59
2017-08-19T11:00:22.526Z,1006.60
2017-08-19T11:01:22.503Z,1006.64
2017-08-19T11:02:22.528Z,1006.67
2017-08-19T11:03:22.493Z,1006.71
2017-08-19T11:04:22.505Z,1006.60
2017-08-19T11:05:22.521Z,1006.62
2017-08-19T11:06:22.522Z,1006.64
2017-08-19T11:07:22.525Z,1006.59
2017-08-19T11:08:22.526Z,1006.59
2017-08-19T11:09:22.492Z,1006.55
2017-08-19T11:10:22.526Z,1006.55
2017-08-19T11:11:22.561Z,1006.56
2017-08-19T11:12:22.564Z,1006.48
2017-08-19T11:13:22.562Z,1006.44
2017-08-19T11:14:22.563Z,1006.53
2017-08-19T11:15:22.530Z,1006.42
2017-08-19T11:16:22.569Z,1006.48
2017-08-19T11:17:22.569Z,1006.50
2017-08-19T11:18:22.547Z,1006.59
2017-08-19T11:19:22.542Z,1006.54
2017-08-19T11:20:22.544Z,1006.53
2017-08-19T11:21:22.584Z,1006.56
2017-08-19T11:22:22.513Z,1006.57
2017-08-19T11:23:22.603Z,1006.56
2017-08-19T11:24:22.585Z,1006.64
2017-08-19T11:25:22.570Z,1006.62
2017-08-19T11:26:22.545Z,1006.61
2017-08-19T11:27:22.587Z,1006.63
2017-08-19T11:28:22.610Z,1006.65
2017-08-19T11:29:22.604Z,1006.61
2017-08-19T11:30:22.551Z,1006.62
2017-08-19T11:31:22.546Z,1006.69
2017-08-19T11:32:22.521Z,1006.74
2017-08-19T11:33:22.607Z,1006.73
2017-08-19T11:34:22.613Z,1006.70
2017-08-19T11:35:22.575Z,1006.69
2017-08-19T11:36:22.548Z,1006.70
2017-08-19T11:37:22.524Z,1006.67
2017-08-19T11:38:22.542Z,1006.75
2017-08-19T11:39:22.517Z,1006.76
2017-08-19T11:40:22.512Z,1006.74
2017-08-19T11:41:22.544Z,1006.78
2017-08-19T11:42:22.538Z,1006.78
2017-08-19T11:43:22.549Z,1006.72
2017-08-19T11:44:22.522Z,1006.73
2017-08-19T11:45:22.579Z,1006.75
2017-08-19T11:46:22.517Z,1006.79
2017-08-19T11:47:22.552Z,1006.77
2017-08-19T11:48:22.582Z,1006.73
2017-08-19T11:49:22.553Z,1006.83
2017-08-19T11:50:22.591Z,1006.87
2017-08-19T11:51:22.580Z,1006.89
2017-08-19T11:52:22.585Z,1006.91
2017-08-19T11:53:22.547Z,1006.83
2017-08-19T11:54:22.551Z,1006.84
2017-08-19T11:55:22.620Z,1006.86
2017-08-19T11:56:22.603Z,1006.87
2017-08-19T11:57:22.584Z,1006.93
2017-08-19T11:58:22.624Z,1006.84
2017-08-19T11:59:22.566Z,1006.86
2017-08-19T12:00:22.599Z,1006.92
2017-08-19T12:01:22.574Z,1006.92
2017-08-19T12:02:22.626Z,1006.90
2017-08-19T12:03:22.627Z,1006.90
2017-08-19T12:04:22.603Z,1006.91
2017-08-19T12:05:22.577Z,1006.77
2017-08-19T12:06:22.557Z,1006.83
2017-08-19T12:07:22.534Z,1006.87